Time;durP1;ratioP1;P1;durP2;ratioP2;P2;SDS_P1;SDS_P2;PMS_P1;PMS_P2;Temp;Humidity;BMP_temperature;BMP_pressure;BME280_temperature;BME280_humidity;BME280_pressure;Samples;Min_cycle;Max_cycle;Signal;HPM_P1;HPM_P2
2023/04/04 00:00:50;;;;;;;9.75;4.88;;;;;;;1.76;72.73;102127.75;5017335;28;20133;-78
2023/04/04 00:03:17;;;;;;;7.57;5.00;;;;;;;1.66;72.63;102130.72;5025630;28;20050;-78
2023/04/04 00:05:45;;;;;;;6.45;4.00;;;;;;;1.67;72.56;102127.22;5024961;28;20053;-78
2023/04/04 00:08:12;;;;;;;8.07;4.35;;;;;;;1.74;72.46;102132.16;5023980;28;20210;-77
2023/04/04 00:10:38;;;;;;;7.70;4.05;;;;;;;1.68;72.69;102130.66;5033419;28;20137;-77
2023/04/04 00:13:06;;;;;;;6.45;4.30;;;;;;;1.56;72.89;102129.41;5031366;28;20049;-77
2023/04/04 00:15:35;;;;;;;7.25;4.35;;;;;;;1.47;73.42;102126.34;5021829;28;20137;-77
2023/04/04 00:18:02;;;;;;;8.40;4.43;;;;;;;1.36;73.81;102125.97;5016899;28;20570;-76
2023/04/04 00:20:29;;;;;;;10.43;4.72;;;;;;;1.37;74.07;102143.13;5019474;28;20050;-78
2023/04/04 00:22:57;;;;;;;9.07;4.47;;;;;;;1.39;73.75;102136.16;5017927;28;20128;-78
2023/04/04 00:25:24;;;;;;;11.93;4.95;;;;;;;1.34;74.23;102144.06;5018500;28;20050;-78
2023/04/04 00:27:51;;;;;;;10.95;4.93;;;;;;;1.29;74.52;102135.66;5017712;28;20057;-77
2023/04/04 00:30:18;;;;;;;9.15;4.85;;;;;;;1.27;74.65;102138.31;5016939;28;20539;-77
2023/04/04 00:32:44;;;;;;;10.25;4.78;;;;;;;1.30;74.62;102129.63;5017121;28;20149;-77
2023/04/04 00:35:11;;;;;;;10.07;4.38;;;;;;;1.24;74.71;102128.13;5020264;28;20045;-78
2023/04/04 00:37:38;;;;;;;8.45;4.93;;;;;;;1.10;75.57;102121.81;5020453;28;20137;-78
2023/04/04 00:40:08;;;;;;;6.65;4.47;;;;;;;1.07;75.75;102129.66;5022775;28;20100;-77
2023/04/04 00:42:37;;;;;;;9.38;4.60;;;;;;;1.01;75.86;102128.13;5019840;28;20104;-80
2023/04/04 00:45:05;;;;;;;10.15;5.03;;;;;;;1.03;75.98;102123.75;5018363;28;20129;-76
2023/04/04 00:47:32;;;;;;;8.68;4.70;;;;;;;0.95;76.06;102133.53;5019284;28;20105;-76
2023/04/04 00:49:59;;;;;;;8.43;4.93;;;;;;;0.97;76.12;102127.41;5019222;28;20137;-77
2023/04/04 00:52:26;;;;;;;8.82;4.80;;;;;;;0.93;76.01;102133.63;5018060;28;20046;-78
2023/04/04 00:54:54;;;;;;;11.48;4.60;;;;;;;1.03;76.09;102133.25;5017168;28;20157;-78
2023/04/04 00:57:23;;;;;;;9.15;4.95;;;;;;;0.98;76.13;102126.50;5017407;28;20483;-77
2023/04/04 00:59:50;;;;;;;7.75;4.65;;;;;;;1.02;76.33;102134.13;5018007;28;20056;-77
2023/04/04 01:02:17;;;;;;;11.35;4.60;;;;;;;0.96;76.23;102133.47;5019165;28;20046;-77
2023/04/04 01:04:44;;;;;;;9.43;5.40;;;;;;;0.94;76.63;102135.28;5018776;28;20432;-78
2023/04/04 01:07:11;;;;;;;9.45;5.22;;;;;;;0.93;76.28;102133.63;5018274;28;20145;-78
2023/04/04 01:09:39;;;;;;;9.50;4.50;;;;;;;0.93;76.56;102133.63;5019082;28;20054;-77
2023/04/04 01:12:06;;;;;;;8.85;4.90;;;;;;;0.95;76.23;102123.22;5018664;28;20054;-76
2023/04/04 01:14:34;;;;;;;8.60;4.60;;;;;;;0.95;76.23;102125.78;5018750;28;20432;-77
2023/04/04 01:17:02;;;;;;;11.48;4.97;;;;;;;0.92;76.38;102128.50;5014592;28;20148;-76
2023/04/04 01:19:32;;;;;;;10.15;4.78;;;;;;;0.93;76.59;102127.63;5014246;28;20046;-77
2023/04/04 01:22:01;;;;;;;10.05;4.88;;;;;;;0.89;76.27;102121.75;5008831;28;20117;-77
2023/04/04 01:24:32;;;;;;;9.63;4.32;;;;;;;0.81;76.35;102123.75;5018753;28;20061;-77
2023/04/04 01:27:00;;;;;;;8.18;4.72;;;;;;;0.83;76.63;102116.81;5010338;28;20065;-77
2023/04/04 01:29:27;;;;;;;8.13;4.75;;;;;;;0.84;76.74;102127.97;5010745;28;20102;-77
2023/04/04 01:32:00;;;;;;;7.30;4.72;;;;;;;0.78;76.33;102116.13;5012696;28;20050;-75
2023/04/04 01:34:35;;;;;;;9.70;4.90;;;;;;;0.82;76.72;102125.44;5022812;28;20402;-81
2023/04/04 01:37:06;;;;;;;10.18;4.80;;;;;;;0.80;76.59;102116.09;5019946;28;20104;-80
2023/04/04 01:39:42;;;;;;;9.00;4.80;;;;;;;0.63;77.08;102116.69;5027144;28;20066;-80
2023/04/04 01:42:11;;;;;;;11.35;5.10;;;;;;;0.61;77.33;102110.75;5026043;28;20124;-81
2023/04/04 01:44:38;;;;;;;7.10;4.47;;;;;;;0.62;77.55;102109.88;5024611;28;20046;-80
2023/04/04 01:47:07;;;;;;;7.28;4.53;;;;;;;0.53;77.96;102117.91;5024037;28;20053;-79
2023/04/04 01:49:34;;;;;;;8.13;4.65;;;;;;;0.51;78.09;102117.13;5026077;28;20132;-79
2023/04/04 01:52:01;;;;;;;8.48;5.00;;;;;;;0.53;78.14;102110.19;5025640;28;20076;-79
2023/04/04 01:54:28;;;;;;;6.93;4.40;;;;;;;0.52;78.35;102118.81;5025383;28;20140;-80
2023/04/04 01:56:56;;;;;;;9.18;4.68;;;;;;;0.47;78.08;102111.28;5026184;28;20050;-81
2023/04/04 01:59:24;;;;;;;9.02;4.40;;;;;;;0.48;78.29;102101.78;5025165;28;20038;-80
2023/04/04 02:01:50;;;;;;;9.60;5.03;;;;;;;0.44;78.37;102102.81;5025488;28;20054;-81
2023/04/04 02:04:17;;;;;;;9.30;5.22;;;;;;;0.45;78.86;102100.19;5022819;28;20073;-83
2023/04/04 02:06:44;;;;;;;9.05;4.72;;;;;;;0.38;78.63;102100.47;5026394;28;20049;-82
2023/04/04 02:09:10;;;;;;;9.52;4.97;;;;;;;0.37;78.93;102109.09;5027222;28;20113;-81
2023/04/04 02:11:37;;;;;;;8.27;4.80;;;;;;;0.37;78.83;102099.63;5027827;28;20057;-79
2023/04/04 02:14:05;;;;;;;6.90;4.57;;;;;;;0.33;79.34;102100.63;5024078;28;20049;-81
2023/04/04 02:16:35;;;;;;;9.27;4.80;;;;;;;0.39;79.28;102109.88;5024269;28;20073;-80
2023/04/04 02:19:02;;;;;;;7.95;4.80;;;;;;;0.36;79.09;102110.81;5024688;28;20587;-81
2023/04/04 02:21:29;;;;;;;8.05;4.63;;;;;;;0.25;79.56;102102.63;5026641;28;20120;-80
2023/04/04 02:23:56;;;;;;;8.75;4.53;;;;;;;0.18;80.04;102117.44;5024069;28;20439;-80
2023/04/04 02:26:22;;;;;;;7.82;5.40;;;;;;;0.14;79.90;102108.16;5023888;28;20157;-80
2023/04/04 02:28:49;;;;;;;8.30;5.00;;;;;;;0.10;80.26;102106.56;5022649;28;20153;-79
2023/04/04 02:31:16;;;;;;;10.05;5.43;;;;;;;0.13;80.12;102101.31;5023137;28;20081;-80
2023/04/04 02:33:44;;;;;;;8.75;4.82;;;;;;;0.14;80.40;102102.16;5025454;28;20050;-81
2023/04/04 02:36:11;;;;;;;9.25;5.15;;;;;;;0.05;80.56;102100.72;5023651;28;20046;-80
2023/04/04 02:38:38;;;;;;;11.00;4.97;;;;;;;0.00;80.84;102102.66;5025396;28;20049;-80
2023/04/04 02:44:12;;;;;;;12.20;4.85;;;;;;;-0.19;81.60;102097.28;4994058;28;20558;-81
2023/04/04 02:46:48;;;;;;;11.77;5.10;;;;;;;-0.38;81.76;102081.59;5028287;28;20045;-82
2023/04/04 02:49:24;;;;;;;9.13;5.03;;;;;;;-0.39;81.78;102069.63;5029529;28;20050;-82
2023/04/04 02:52:00;;;;;;;7.45;4.65;;;;;;;-0.18;82.08;102082.69;5027162;28;20046;-81
2023/04/04 02:54:32;;;;;;;7.95;4.90;;;;;;;-0.13;81.65;102075.66;5024311;28;20037;-79
2023/04/04 02:57:03;;;;;;;8.18;5.13;;;;;;;-0.29;81.69;102059.91;5022661;28;20128;-77
2023/04/04 02:59:37;;;;;;;9.50;5.13;;;;;;;-0.31;81.82;102071.13;5029544;28;20066;-79
2023/04/04 03:02:06;;;;;;;11.20;5.35;;;;;;;-0.50;82.47;102066.59;5028136;28;20062;-79
2023/04/04 03:04:36;;;;;;;9.63;5.03;;;;;;;-0.49;82.70;102073.44;5024828;28;20073;-79
2023/04/04 03:07:03;;;;;;;10.65;5.45;;;;;;;-0.52;83.29;102068.38;5021025;28;20117;-80
2023/04/04 03:09:32;;;;;;;10.70;5.40;;;;;;;-0.51;83.83;102082.09;5018398;28;20046;-78
2023/04/04 03:12:00;;;;;;;10.00;5.60;;;;;;;-0.57;83.89;102079.72;5007824;28;20104;-79
2023/04/04 03:14:28;;;;;;;10.27;5.38;;;;;;;-0.60;84.22;102075.50;5015583;28;20496;-78
2023/04/04 03:16:55;;;;;;;9.82;5.47;;;;;;;-0.57;84.42;102095.97;5025602;28;20116;-79
2023/04/04 03:19:22;;;;;;;11.45;5.35;;;;;;;-0.58;84.62;102090.88;5031904;28;20049;-79
2023/04/04 03:21:50;;;;;;;11.02;5.85;;;;;;;-0.57;84.72;102090.84;5029659;28;20054;-79
2023/04/04 03:24:17;;;;;;;10.27;5.60;;;;;;;-0.54;84.69;102085.59;5025039;28;20210;-80
2023/04/04 03:26:44;;;;;;;9.57;5.78;;;;;;;-0.61;84.58;102093.53;5026915;28;20050;-79
2023/04/04 03:29:10;;;;;;;14.88;6.65;;;;;;;-0.61;84.70;102084.09;5026421;28;20056;-78
2023/04/04 03:31:37;;;;;;;10.68;5.93;;;;;;;-0.61;84.65;102089.25;5031433;28;20084;-80
2023/04/04 03:34:04;;;;;;;9.85;6.30;;;;;;;-0.69;85.08;102086.06;5025913;28;20074;-79
2023/04/04 03:36:30;;;;;;;9.52;5.75;;;;;;;-0.69;85.09;102091.22;5025132;28;20101;-80
2023/04/04 03:38:58;;;;;;;11.52;5.65;;;;;;;-0.65;85.41;102077.38;5023856;28;20050;-80
2023/04/04 03:41:25;;;;;;;10.02;5.65;;;;;;;-0.70;85.56;102081.81;5026291;28;20161;-80
2023/04/04 03:43:52;;;;;;;10.65;5.63;;;;;;;-0.78;85.82;102082.06;5025750;28;20049;-81
2023/04/04 03:46:18;;;;;;;13.10;5.93;;;;;;;-0.83;85.87;102081.34;5023189;28;20144;-79
2023/04/04 03:48:58;;;;;;;10.38;5.60;;;;;;;-0.80;86.00;102083.84;5024244;28;20073;-80
2023/04/04 03:51:28;;;;;;;14.02;6.10;;;;;;;-0.83;85.56;102071.06;5026413;28;20053;-82
2023/04/04 03:54:02;;;;;;;12.93;6.30;;;;;;;-0.81;85.45;102076.16;5033079;28;20136;-82
2023/04/04 03:56:41;;;;;;;11.82;6.40;;;;;;;-0.91;85.56;102072.19;5033100;28;20084;-80
2023/04/04 03:59:20;;;;;;;12.23;6.68;;;;;;;-0.83;86.21;102080.53;5031514;28;20106;-81
2023/04/04 04:01:56;;;;;;;11.57;6.70;;;;;;;-0.80;85.73;102073.56;5030397;28;20489;-82
2023/04/04 04:07:23;;;;;;;14.63;7.47;;;;;;;-0.87;86.13;102068.66;5004721;28;20049;-80
2023/04/04 04:09:56;;;;;;;12.00;6.63;;;;;;;-0.91;86.32;102079.91;5025801;28;20050;-79
2023/04/04 04:12:37;;;;;;;9.25;5.97;;;;;;;-1.06;86.32;102056.41;5024289;28;20103;-80
2023/04/04 04:15:10;;;;;;;10.20;7.00;;;;;;;-1.22;86.37;102055.16;5019174;28;20065;-80
2023/04/04 04:17:50;;;;;;;12.50;6.78;;;;;;;-1.14;86.74;102076.34;5022391;28;20133;-80
2023/04/04 04:20:21;;;;;;;8.77;6.47;;;;;;;-1.23;87.27;102061.19;5025558;28;20065;-80
2023/04/04 04:22:57;;;;;;;15.80;6.90;;;;;;;-1.37;88.04;102051.31;5027915;28;20330;-80
2023/04/04 04:25:30;;;;;;;12.65;7.13;;;;;;;-1.31;87.74;102065.72;5031401;28;20080;-80
2023/04/04 04:27:57;;;;;;;14.27;7.40;;;;;;;-1.41;88.45;102060.00;5031660;28;20050;-80
2023/04/04 04:30:24;;;;;;;15.95;7.03;;;;;;;-1.44;88.45;102070.38;5031757;28;20053;-81
2023/04/04 04:32:50;;;;;;;11.73;7.20;;;;;;;-1.51;88.53;102068.03;5030501;28;20455;-81
2023/04/04 04:35:17;;;;;;;12.98;8.57;;;;;;;-1.57;89.11;102070.78;5028022;28;20496;-81
2023/04/04 04:37:44;;;;;;;13.27;7.50;;;;;;;-1.59;89.51;102070.81;5022131;28;20109;-81
2023/04/04 04:40:13;;;;;;;12.20;7.72;;;;;;;-1.63;89.26;102068.38;5021039;28;20137;-81
2023/04/04 04:42:45;;;;;;;9.13;6.68;;;;;;;-1.62;89.96;102067.50;5022119;28;20088;-81
2023/04/04 04:45:13;;;;;;;12.18;6.75;;;;;;;-1.62;90.11;102065.75;5022997;28;20046;-81
2023/04/04 04:47:43;;;;;;;16.65;7.15;;;;;;;-1.64;90.35;102061.56;5023878;28;20057;-80
2023/04/04 04:50:11;;;;;;;15.80;7.60;;;;;;;-1.67;90.86;102058.19;5022397;28;20504;-80
2023/04/04 04:52:38;;;;;;;12.57;7.68;;;;;;;-1.69;91.52;102065.09;5021927;28;20488;-81
2023/04/04 04:55:06;;;;;;;17.42;8.45;;;;;;;-1.67;91.63;102062.47;5021246;28;20133;-79
2023/04/04 04:57:34;;;;;;;13.57;8.07;;;;;;;-1.71;91.72;102066.00;5018230;28;20057;-80
2023/04/04 05:00:03;;;;;;;12.55;8.18;;;;;;;-1.73;91.69;102063.50;5018862;28;20515;-80
2023/04/04 05:02:30;;;;;;;11.68;7.45;;;;;;;-1.75;92.03;102067.81;5018235;28;20050;-78
2023/04/04 05:04:56;;;;;;;9.50;6.93;;;;;;;-1.75;92.32;102065.25;5021310;28;20046;-79
2023/04/04 05:07:23;;;;;;;13.60;7.57;;;;;;;-1.76;92.83;102067.88;5021572;28;20092;-79
2023/04/04 05:09:52;;;;;;;11.05;7.50;;;;;;;-1.75;92.83;102064.41;5019886;28;20121;-82
2023/04/04 05:12:19;;;;;;;9.90;7.13;;;;;;;-1.73;93.07;102067.78;5018964;28;20058;-83
2023/04/04 05:14:46;;;;;;;11.07;7.30;;;;;;;-1.71;92.78;102060.88;5018303;28;20674;-82
2023/04/04 05:17:15;;;;;;;15.52;7.55;;;;;;;-1.70;93.14;102068.53;5019157;28;20053;-81
2023/04/04 05:19:41;;;;;;;10.85;7.97;;;;;;;-1.67;93.09;102060.75;5019674;28;20129;-81
2023/04/04 05:22:08;;;;;;;15.93;8.90;;;;;;;-1.63;92.68;102064.09;5021298;28;20073;-81
2023/04/04 05:24:35;;;;;;;11.15;8.05;;;;;;;-1.53;92.58;102074.94;5020496;28;20475;-82
2023/04/04 05:27:08;;;;;;;17.38;8.52;;;;;;;-1.55;93.13;102076.69;5019963;28;20058;-81
2023/04/04 05:29:34;;;;;;;;;;;;;;;-1.51;92.71;102081.72;5021287;28;20088;-80
2023/04/04 05:32:01;;;;;;;14.55;8.30;;;;;;;-1.42;92.88;102080.59;5024610;28;19921;-81
2023/04/04 05:34:30;;;;;;;21.35;9.52;;;;;;;-1.44;93.06;102077.25;5022274;28;20050;-82
2023/04/04 05:36:57;;;;;;;19.42;8.52;;;;;;;-1.40;93.15;102078.81;5021114;28;20061;-81
2023/04/04 05:39:24;;;;;;;15.77;8.38;;;;;;;-1.34;92.81;102091.47;5021249;28;20096;-81
2023/04/04 05:41:50;;;;;;;21.85;10.45;;;;;;;-1.26;92.56;102081.81;5024345;28;20073;-82
2023/04/04 05:44:17;;;;;;;21.70;10.65;;;;;;;-1.22;92.87;102083.41;5023988;28;20046;-80
2023/04/04 05:46:45;;;;;;;16.05;9.85;;;;;;;-1.20;92.64;102089.34;5023996;28;20069;-79
2023/04/04 05:49:11;;;;;;;18.25;10.60;;;;;;;-1.13;92.92;102083.16;5022712;28;20050;-80
2023/04/04 05:51:39;;;;;;;16.92;8.73;;;;;;;-1.07;92.16;102088.09;5023042;28;20045;-80
2023/04/04 05:54:06;;;;;;;14.52;8.63;;;;;;;-0.99;92.38;102087.03;5026522;28;20057;-80
2023/04/04 05:56:33;;;;;;;15.85;7.90;;;;;;;-0.93;92.52;102091.97;5023747;28;20050;-80
2023/04/04 05:59:01;;;;;;;13.73;7.88;;;;;;;-0.86;92.39;102096.03;5023517;28;20141;-80
2023/04/04 06:01:28;;;;;;;15.38;8.27;;;;;;;-0.76;92.44;102102.56;5025930;28;20058;-83
2023/04/04 06:04:01;;;;;;;13.15;7.45;;;;;;;-0.69;91.65;102097.19;5026105;28;20045;-83
2023/04/04 06:13:02;;;;;;;19.60;10.38;;;;;;;-0.50;91.08;102096.63;4966920;28;20046;-82
2023/04/04 06:15:46;;;;;;;20.75;9.32;;;;;;;-0.44;90.81;102106.69;5001475;28;20046;-82
2023/04/04 06:53:34;;;;;;;9.27;5.57;;;;;;;6.97;61.20;102049.25;4859173;29;20061;-80
2023/04/04 06:56:06;;;;;;;10.82;5.82;;;;;;;7.95;59.32;102041.00;4991609;28;20046;-82
2023/04/04 06:58:33;;;;;;;7.95;4.78;;;;;;;8.56;57.27;102031.53;5022156;28;20080;-83
2023/04/04 07:01:14;;;;;;;10.63;5.50;;;;;;;8.59;57.47;102058.25;5014025;28;20050;-83
2023/04/04 07:03:43;;;;;;;10.05;5.25;;;;;;;8.82;56.07;102064.44;5023909;28;20050;-83
2023/04/04 07:06:13;;;;;;;11.48;5.38;;;;;;;8.46;55.69;102067.06;5025645;28;20057;-82
2023/04/04 07:08:43;;;;;;;9.27;5.25;;;;;;;8.14;55.97;102066.63;5025234;28;20054;-81
2023/04/04 07:11:45;;;;;;;11.55;5.45;;;;;;;8.53;54.71;102055.22;5024288;28;20073;-82
2023/04/04 07:14:12;;;;;;;9.67;5.47;;;;;;;9.33;53.75;102059.00;5050805;23;20068;-81
2023/04/04 07:16:38;;;;;;;15.02;5.22;;;;;;;10.12;52.25;102042.50;5058185;28;20098;-80
2023/04/04 07:19:05;;;;;;;12.70;5.50;;;;;;;9.85;52.39;102081.25;5059038;28;20041;-81
2023/04/04 07:21:32;;;;;;;14.90;5.07;;;;;;;8.47;52.80;102071.34;5058949;28;20045;-82
2023/04/04 07:24:01;;;;;;;8.48;4.85;;;;;;;9.92;51.27;102071.97;5055982;28;20049;-82
2023/04/04 07:26:27;;;;;;;10.25;4.63;;;;;;;9.80;50.80;102063.28;5060805;28;20087;-82
2023/04/04 07:28:55;;;;;;;7.60;4.45;;;;;;;9.94;51.12;102072.66;5061104;28;20052;-81
2023/04/04 07:31:22;;;;;;;6.28;4.25;;;;;;;9.86;50.64;102072.44;5059691;28;20088;-80
2023/04/04 07:33:49;;;;;;;6.80;4.00;;;;;;;9.60;49.76;102064.78;5072432;22;20079;-79
2023/04/04 07:36:15;;;;;;;8.93;4.38;;;;;;;10.00;49.39;102061.75;5060291;28;20131;-79
2023/04/04 07:38:42;;;;;;;6.63;4.05;;;;;;;9.58;49.01;102068.44;5059350;28;20088;-78
2023/04/04 07:41:10;;;;;;;8.00;4.20;;;;;;;9.60;49.77;102075.22;5052745;28;20056;-80
2023/04/04 07:43:37;;;;;;;7.57;4.25;;;;;;;8.10;50.48;102060.78;5059392;28;20141;-79
2023/04/04 07:46:05;;;;;;;7.60;4.25;;;;;;;8.33;51.03;102074.91;5058192;28;20067;-79
2023/04/04 07:48:31;;;;;;;7.15;3.72;;;;;;;8.50;49.91;102071.13;5058999;28;20067;-79
2023/04/04 07:50:59;;;;;;;7.22;3.92;;;;;;;7.58;50.66;102053.06;5059544;28;20475;-79
2023/04/04 07:53:25;;;;;;;12.45;4.05;;;;;;;8.40;50.02;102060.50;5059355;28;20368;-81
2023/04/04 07:55:52;;;;;;;10.25;3.80;;;;;;;8.83;49.07;102060.06;5060174;28;20056;-79
2023/04/04 07:58:20;;;;;;;9.02;3.70;;;;;;;8.15;49.17;102050.88;5061467;28;20080;-79
2023/04/04 08:00:47;;;;;;;7.53;3.60;;;;;;;8.55;48.83;102055.94;5057125;28;20041;-80
2023/04/04 08:03:16;;;;;;;10.68;3.78;;;;;;;8.69;48.29;102045.38;5059247;28;20392;-79
2023/04/04 08:05:43;;;;;;;6.65;4.10;;;;;;;7.65;48.75;102049.94;5058703;28;20076;-80
2023/04/04 08:08:09;;;;;;;5.55;3.63;;;;;;;8.26;49.55;102050.16;5062889;28;20045;-79
2023/04/04 08:10:36;;;;;;;7.35;3.95;;;;;;;7.21;50.45;102060.69;5058569;28;20049;-79
2023/04/04 08:13:04;;;;;;;5.15;3.63;;;;;;;7.57;50.69;102054.81;5055797;28;20144;-80
2023/04/04 08:15:31;;;;;;;10.23;3.55;;;;;;;6.88;51.09;102062.84;5059818;28;20041;-79
2023/04/04 08:17:57;;;;;;;6.25;3.55;;;;;;;7.37;50.30;102057.94;5060583;28;20115;-77
2023/04/04 08:20:27;;;;;;;6.85;3.55;;;;;;;7.21;50.46;102050.28;5060756;28;20109;-79
2023/04/04 08:22:53;;;;;;;5.78;3.72;;;;;;;7.39;50.11;102037.00;5060410;28;20057;-79
2023/04/04 08:25:20;;;;;;;6.15;3.80;;;;;;;6.75;51.07;102054.97;5061947;28;20139;-79
2023/04/04 08:27:47;;;;;;;5.88;3.78;;;;;;;7.14;50.70;102051.59;5061285;28;20045;-80
2023/04/04 08:30:14;;;;;;;5.28;3.58;;;;;;;7.98;49.58;102039.03;5061222;28;20147;-80
2023/04/04 08:32:41;;;;;;;5.18;3.75;;;;;;;8.69;48.15;102029.72;5062547;28;20076;-80
2023/04/04 08:35:08;;;;;;;6.15;3.92;;;;;;;9.38;47.03;102028.16;5062854;28;20044;-81
2023/04/04 08:37:36;;;;;;;6.07;3.75;;;;;;;8.13;48.11;102034.50;5063249;28;20485;-79
2023/04/04 08:40:03;;;;;;;7.47;4.00;;;;;;;8.34;48.78;102037.44;5061939;28;20087;-79
2023/04/04 08:42:32;;;;;;;10.93;4.22;;;;;;;7.83;48.91;102029.63;5061135;28;20101;-78
2023/04/04 08:45:03;;;;;;;6.95;3.97;;;;;;;8.11;49.18;102030.34;5057652;28;20049;-78
2023/04/04 08:47:31;;;;;;;10.38;4.40;;;;;;;7.94;48.96;102026.31;5058364;28;20045;-78
2023/04/04 08:50:00;;;;;;;6.88;3.85;;;;;;;8.30;48.79;102034.19;5059077;28;20139;-78
2023/04/04 08:52:28;;;;;;;13.02;4.18;;;;;;;7.66;49.52;102051.59;5056356;28;20056;-80
2023/04/04 08:54:57;;;;;;;12.32;4.70;;;;;;;8.67;47.92;102039.44;5061057;28;20063;-78
2023/04/04 08:57:24;;;;;;;7.97;3.75;;;;;;;8.29;48.32;102048.16;5059668;28;20112;-81
2023/04/04 08:59:50;;;;;;;7.57;3.72;;;;;;;8.29;48.92;102044.72;5059795;28;20049;-80
2023/04/04 09:02:24;;;;;;;6.43;3.97;;;;;;;8.09;48.82;102038.25;5058674;28;20045;-79
2023/04/04 09:04:52;;;;;;;5.03;3.63;;;;;;;7.95;48.89;102047.06;5058337;28;20114;-80
2023/04/04 09:07:20;;;;;;;13.20;3.95;;;;;;;7.58;49.07;102035.66;5059833;28;20076;-80
2023/04/04 09:09:47;;;;;;;7.13;3.97;;;;;;;8.08;49.11;102054.84;5059092;28;20506;-79
2023/04/04 09:12:16;;;;;;;7.32;4.00;;;;;;;8.40;49.29;102046.63;5058603;28;20135;-79
2023/04/04 09:14:44;;;;;;;5.65;3.80;;;;;;;8.63;48.09;102033.59;5058637;28;20055;-79
2023/04/04 09:17:10;;;;;;;5.50;3.92;;;;;;;9.21;48.12;102046.84;5059330;28;20072;-79
2023/04/04 09:19:38;;;;;;;7.00;4.22;;;;;;;8.05;48.44;102052.44;5060359;28;20053;-80
2023/04/04 09:22:07;;;;;;;7.80;4.05;;;;;;;8.28;48.87;102043.88;5064078;28;20125;-81
2023/04/04 09:24:42;;;;;;;6.55;4.38;;;;;;;7.62;49.03;102044.09;5063012;28;20041;-79
2023/04/04 09:27:12;;;;;;;5.65;4.13;;;;;;;7.59;49.21;102046.91;5063530;28;20104;-81
2023/04/04 09:29:41;;;;;;;7.97;4.40;;;;;;;7.60;49.56;102057.22;5060236;28;20110;-80
2023/04/04 09:32:09;;;;;;;7.15;4.38;;;;;;;6.95;50.15;102051.13;5063925;28;20072;-80
2023/04/04 09:34:37;;;;;;;9.90;4.45;;;;;;;6.97;49.90;102057.91;5060627;28;20088;-80
2023/04/04 09:37:04;;;;;;;11.05;4.57;;;;;;;6.95;50.59;102054.56;5062895;28;20044;-79
2023/04/04 09:39:32;;;;;;;10.75;6.15;;;;;;;7.31;51.17;102037.50;5059204;28;20056;-79
2023/04/04 09:42:00;;;;;;;6.47;5.47;;;;;;;7.34;50.71;102045.09;5062172;28;20048;-79
2023/04/04 09:44:28;;;;;;;10.57;4.25;;;;;;;7.30;49.92;102038.44;5054636;28;20049;-81
2023/04/04 09:47:22;;;;;;;7.80;4.38;;;;;;;6.73;51.08;102049.03;5055519;28;20064;-80
2023/04/04 09:49:49;;;;;;;8.05;4.10;;;;;;;6.69;51.07;102046.72;5056775;28;20072;-81
2023/04/04 09:52:19;;;;;;;8.38;4.10;;;;;;;6.21;51.26;102043.63;5058164;28;20041;-81
2023/04/04 09:54:55;;;;;;;7.25;4.40;;;;;;;7.15;51.14;102049.81;5058006;28;20072;-80
2023/04/04 09:57:22;;;;;;;5.57;3.78;;;;;;;7.59;50.37;102033.88;5058375;28;20048;-81
2023/04/04 09:59:49;;;;;;;6.20;4.10;;;;;;;6.66;50.47;102026.94;5061083;28;20120;-82
2023/04/04 10:02:17;;;;;;;4.97;3.88;;;;;;;6.83;50.50;102036.28;5062563;28;20049;-81
2023/04/04 10:04:44;;;;;;;6.22;4.32;;;;;;;6.56;50.60;102031.91;5064050;28;20060;-81
2023/04/04 10:07:13;;;;;;;9.82;4.40;;;;;;;6.63;50.83;102032.34;5055263;28;20035;-78
2023/04/04 10:09:40;;;;;;;7.55;4.20;;;;;;;6.88;50.58;102037.66;5050959;28;20045;-80
2023/04/04 10:12:10;;;;;;;8.02;4.40;;;;;;;7.04;50.82;102032.31;5073939;28;20045;-79
2023/04/04 10:14:37;;;;;;;8.90;4.88;;;;;;;6.95;50.57;102036.34;5068965;28;20033;-79
2023/04/04 10:17:09;;;;;;;7.45;4.68;;;;;;;7.23;50.01;102024.13;5070674;28;20029;-79
2023/04/04 10:19:38;;;;;;;6.80;4.32;;;;;;;7.41;49.33;102020.34;5076743;28;20604;-80
2023/04/04 10:22:05;;;;;;;8.00;4.43;;;;;;;6.96;49.54;102021.56;5075638;28;20037;-80
2023/04/04 10:24:33;;;;;;;7.78;4.43;;;;;;;7.16;49.52;102015.88;5072158;28;20064;-81
2023/04/04 10:27:00;;;;;;;6.97;4.47;;;;;;;6.93;49.75;102014.78;5067014;28;20049;-82
2023/04/04 10:29:27;;;;;;;6.30;4.63;;;;;;;7.19;50.37;102004.44;5065005;28;20048;-80
2023/04/04 10:32:00;;;;;;;7.35;4.57;;;;;;;7.30;50.07;101999.38;5062925;28;20060;-80
2023/04/04 10:34:32;;;;;;;8.23;4.60;;;;;;;6.89;50.21;102002.91;5058258;28;20055;-81
2023/04/04 10:37:08;;;;;;;7.65;4.50;;;;;;;6.96;50.09;101996.38;5060377;28;20068;-80
2023/04/04 10:39:38;;;;;;;7.45;4.80;;;;;;;7.15;50.40;101993.41;5058492;28;20056;-80
2023/04/04 10:42:06;;;;;;;7.35;4.65;;;;;;;7.38;50.09;101993.66;5063360;28;20109;-79
2023/04/04 10:44:37;;;;;;;6.53;4.47;;;;;;;7.29;49.96;101987.28;5060334;28;20064;-79
2023/04/04 10:47:13;;;;;;;6.88;4.35;;;;;;;7.13;49.77;101981.41;5049548;28;20111;-79
2023/04/04 10:49:40;;;;;;;7.80;4.70;;;;;;;7.34;49.53;101985.22;5061658;28;20506;-80
2023/04/04 10:52:10;;;;;;;6.13;4.43;;;;;;;7.55;49.28;101983.78;5063849;28;20060;-79
2023/04/04 10:54:37;;;;;;;7.93;4.55;;;;;;;7.92;49.69;101986.47;5064987;28;20072;-80
2023/04/04 10:57:05;;;;;;;7.18;5.63;;;;;;;7.64;50.25;101975.31;5064704;28;20049;-80
2023/04/04 10:59:31;;;;;;;7.75;5.00;;;;;;;7.96;49.54;101980.94;5062604;28;20428;-80
2023/04/04 11:02:00;;;;;;;6.32;4.72;;;;;;;8.41;49.20;101986.53;5060458;28;20132;-80
2023/04/04 11:04:34;;;;;;;9.55;5.30;;;;;;;8.43;49.05;101973.38;5063839;28;20128;-81
2023/04/04 11:07:27;;;;;;;6.22;4.70;;;;;;;8.11;49.29;101970.38;5062676;28;20045;-80
2023/04/04 11:09:55;;;;;;;6.85;4.75;;;;;;;7.95;49.58;101966.25;5060266;28;20462;-80
2023/04/04 11:12:31;;;;;;;8.40;4.85;;;;;;;8.49;48.84;101952.91;5062988;28;20056;-79
2023/04/04 11:15:09;;;;;;;7.10;5.00;;;;;;;8.11;48.82;101954.72;5062012;28;20044;-80
2023/04/04 11:17:54;;;;;;;6.93;4.80;;;;;;;8.56;48.57;101953.25;5060980;28;20045;-80
2023/04/04 11:20:22;;;;;;;8.38;6.20;;;;;;;8.47;48.39;101946.13;5058155;28;20084;-80
2023/04/04 11:22:51;;;;;;;9.13;4.80;;;;;;;8.20;48.62;101934.06;5064167;28;20128;-82
2023/04/04 11:25:36;;;;;;;7.03;4.82;;;;;;;7.73;49.35;101936.56;5064836;28;20092;-80
2023/04/04 11:28:07;;;;;;;6.97;4.72;;;;;;;7.94;48.74;101938.53;5062593;28;20041;-82
2023/04/04 11:30:43;;;;;;;7.80;4.70;;;;;;;8.26;47.83;101936.25;5060756;28;20095;-80
2023/04/04 11:33:12;;;;;;;6.78;4.82;;;;;;;8.43;47.90;101929.84;5058606;28;20044;-80
2023/04/04 11:35:40;;;;;;;8.65;4.70;;;;;;;8.44;47.65;101923.69;5056613;28;20042;-79
2023/04/04 11:38:15;;;;;;;7.80;5.00;;;;;;;8.37;48.08;101926.84;5063600;28;20055;-80
2023/04/04 11:40:44;;;;;;;7.03;4.70;;;;;;;8.15;48.12;101920.53;5065476;28;20112;-80
2023/04/04 11:43:15;;;;;;;7.72;5.10;;;;;;;8.49;47.54;101934.63;5063806;28;20045;-80
2023/04/04 11:45:48;;;;;;;8.23;4.90;;;;;;;8.25;47.23;101918.94;5061251;28;20430;-80
2023/04/04 11:48:19;;;;;;;;;;;;;;;8.47;47.32;101926.09;5062611;28;20064;-81
2023/04/04 11:50:50;;;;;;;6.50;4.35;;;;;;;8.63;47.29;101917.97;5062315;28;19925;-81
2023/04/04 11:53:18;;;;;;;8.63;5.13;;;;;;;8.47;46.99;101917.44;5067221;28;20064;-81
2023/04/04 11:55:49;;;;;;;7.15;5.10;;;;;;;8.33;47.31;101907.97;5066020;28;20049;-80
2023/04/04 11:58:17;;;;;;;7.57;4.78;;;;;;;8.37;48.10;101906.00;5067509;28;20519;-81
2023/04/04 12:00:45;;;;;;;9.38;4.70;;;;;;;8.57;48.29;101918.41;5062434;28;20053;-81
2023/04/04 12:03:17;;;;;;;8.45;5.07;;;;;;;8.34;48.33;101914.03;5061861;28;20037;-80
2023/04/04 12:05:44;;;;;;;7.45;5.00;;;;;;;8.53;48.08;101903.91;5060463;28;20423;-81
2023/04/04 12:08:12;;;;;;;7.53;5.18;;;;;;;9.04;47.71;101891.38;5059803;28;20098;-80
2023/04/04 12:10:40;;;;;;;10.23;6.13;;;;;;;8.91;47.18;101886.28;5065091;28;20048;-81
2023/04/04 12:13:09;;;;;;;7.70;5.07;;;;;;;8.93;47.03;101881.78;5061367;28;20041;-80
2023/04/04 12:15:37;;;;;;;5.97;4.53;;;;;;;8.46;47.16;101879.25;5061394;28;20053;-80
2023/04/04 12:18:07;;;;;;;8.48;5.18;;;;;;;8.32;46.99;101873.25;5066064;28;20044;-83
2023/04/04 12:20:33;;;;;;;9.23;5.03;;;;;;;8.19;46.86;101876.81;5065517;28;20113;-81
2023/04/04 12:23:00;;;;;;;8.73;5.05;;;;;;;8.31;47.48;101876.75;5064069;28;20044;-80
2023/04/04 12:25:32;;;;;;;6.18;4.50;;;;;;;8.35;46.65;101861.75;5062092;28;20115;-81